Lander, WY

6:16 PM MDT on March 31, 2015 (GMT -0600)
Hunt | | Change Station
CLOSE
Current Station
Airport
Location: Lander,
Elevation: 5558 ft
Nearby Weather Stations
Active Advisory: Fire Weather Warning

Elev 5558 ft 42.82 °N, 108.73 °W | Updated 23 minutes ago

Partly Cloudy
Partly Cloudy
72 °F
Feels Like 72 °F
N
13
Wind Variable Wind from SW
Gusts 18 mph

Today
High -- | Low -- °F
--% Chance of Precip.
Yesterday
High -- | Low -- °F
Precip. -- in
6:58 AM 7:39 PM
Waxing Gibbous, 89% visible
Pressure 29.58 in
Visibility 10.0 miles
Clouds Clear
Dew Point 17 °F
Humidity 12%
Rainfall 0.00 in
Snow Depth Not available.
UV 1 out of 12
Pollen 8.60 out of 12
Air Quality Not available.
Flu Activity Not available.
METAR KLND 312353Z AUTO 23011G16KT 10SM CLR 22/M08 A2973 RMK AO2 SLP017 T02221083 10244 20150 56021

More Conditions Fewer Conditions

Pressure 29.58 in
Visibility 10.0 miles
Clouds Clear
Dew Point 17 °F
Humidity 12%
Rainfall 0.00 in
Snow Depth Not available.
UV 1 out of 12
Pollen 8.60 out of 12
Air Quality Not available.
Flu Activity Not available.
METAR KLND 312353Z AUTO 23011G16KT 10SM CLR 22/M08 A2973 RMK AO2 SLP017 T02221083 10244 20150 56021

More Conditions Fewer Conditions

10-Day Weather Forecast

Almanac

Astronomy

Mar. 31, 2015 Rise Set
Actual Time
Civil Twilight
Nautical Twilight
Astronomical Twilight
Moon
Length of Visible Light
Length of Day
Tomorrow will be .
, % of the Moon is Illuminated

Today's Extremes

State Highs State Lows

Community

WunderPhotos

Upload Photos

1,809,883 photos uploaded!

WunderBlogs® & News

Nearby

Air Quality

  Air Quality AQ Index Pollutant
Not available.

Snow Depth

Station Depth Elevation

Earthquake Activity

City Distance Mag. Time & Date
Minimum magnitude displayed is 2.5.

Coastal Water Temperatures

Place Temperature

Stations

Nearby Weather Stations

Station Location Temp. Windchill Dew Point Humidity Wind Precip. Elev Updated Type
                   
Fire Weather Warning
Statement as of 11:27 AM MDT on March 31, 2015

... Red flag warning remains in effect until 9 PM MDT this evening
for wind and low relative humidity for fire weather zone 283...

* affected area... Fremont County... fire weather zone 283.

* Winds... southwest to west 15 to 25 mph with gusts up to 40 mph.

* Relative humidity... as low as 12 percent.

* Impacts... residents in this area are advised not to conduct
any burning this afternoon... as any fire could rapidly spread
through fine fuels such as grasses and small vegetation.

Precautionary/preparedness actions...

A red flag warning means that critical fire weather conditions
are either occurring now... or will shortly. A combination of
strong winds... low relative humidity... and warm temperatures can
contribute to extreme fire behavior.